createdAt,value
2022-09-17T00:01:28.190Z,13.14
2022-09-17T00:04:00.293Z,13.13
2022-09-17T00:06:27.667Z,13.11
2022-09-17T00:08:55.711Z,13.18
2022-09-17T00:11:31.901Z,13.19
2022-09-17T00:14:01.667Z,13.21
2022-09-17T00:16:36.869Z,13.12
2022-09-17T00:19:05.659Z,13.09
2022-09-17T00:21:32.946Z,13.08
2022-09-17T00:24:04.557Z,12.88
2022-09-17T00:26:32.632Z,12.88
2022-09-17T00:29:00.325Z,12.83
2022-09-17T00:31:28.951Z,12.81
2022-09-17T00:33:56.602Z,12.85
2022-09-17T00:36:23.719Z,12.69
2022-09-17T00:38:59.278Z,12.70
2022-09-17T00:41:34.651Z,12.51
2022-09-17T00:44:41.158Z,12.62
2022-09-17T00:47:31.055Z,12.48
2022-09-17T00:50:10.685Z,12.45
2022-09-17T00:52:58.447Z,12.48
2022-09-17T00:55:37.910Z,12.47
2022-09-17T00:58:09.957Z,12.42
2022-09-17T01:00:37.220Z,12.48
2022-09-17T01:03:04.149Z,12.36
2022-09-17T01:05:54.543Z,12.46
2022-09-17T01:08:38.458Z,12.42
2022-09-17T01:11:36.331Z,12.35
2022-09-17T01:14:51.008Z,12.35
2022-09-17T01:17:35.284Z,12.33
2022-09-17T01:20:43.763Z,12.34
2022-09-17T01:23:49.185Z,12.33
2022-09-17T01:26:54.028Z,12.28
2022-09-17T01:29:41.886Z,12.30
2022-09-17T01:32:25.483Z,12.31
2022-09-17T01:35:15.213Z,12.22
2022-09-17T01:37:50.615Z,12.16
2022-09-17T01:40:28.986Z,12.18
2022-09-17T01:43:09.550Z,12.11
2022-09-17T01:45:43.577Z,11.95
2022-09-17T01:48:19.460Z,12.09
2022-09-17T01:50:58.213Z,12.12
2022-09-17T01:53:35.543Z,12.11
2022-09-17T01:56:03.768Z,12.04
2022-09-17T01:58:39.648Z,12.09
2022-09-17T02:01:09.896Z,12.05
2022-09-17T02:03:50.778Z,12.02
2022-09-17T02:06:24.463Z,11.95
2022-09-17T02:08:58.211Z,12.13
2022-09-17T02:11:25.310Z,12.14
2022-09-17T02:14:03.988Z,12.17
2022-09-17T02:16:35.685Z,12.05
2022-09-17T02:19:11.266Z,12.04
2022-09-17T02:22:04.075Z,11.94
2022-09-17T02:25:01.492Z,11.96
2022-09-17T02:27:36.685Z,12.04
2022-09-17T02:30:05.253Z,12.00
2022-09-17T02:32:32.098Z,11.94
2022-09-17T02:34:58.929Z,11.91
2022-09-17T02:37:25.719Z,11.85
2022-09-17T02:39:52.590Z,11.88
2022-09-17T02:43:00.676Z,12.03
2022-09-17T02:46:17.484Z,12.01
2022-09-17T02:49:10.711Z,11.99
2022-09-17T02:51:55.381Z,11.77
2022-09-17T02:54:56.010Z,11.85
2022-09-17T02:58:26.637Z,11.88
2022-09-17T03:00:55.800Z,11.85
2022-09-17T03:03:52.115Z,11.88
2022-09-17T03:06:19.345Z,11.80
2022-09-17T03:08:47.499Z,11.93
2022-09-17T03:11:14.994Z,11.93
2022-09-17T03:13:42.147Z,12.00
2022-09-17T03:16:09.381Z,11.96
2022-09-17T03:18:36.450Z,12.10
2022-09-17T03:21:03.337Z,12.21
2022-09-17T03:23:30.123Z,12.25
2022-09-17T03:25:57.625Z,12.33
2022-09-17T03:28:26.391Z,12.17
2022-09-17T03:30:54.057Z,12.26
2022-09-17T03:33:21.071Z,12.25
2022-09-17T03:35:48.010Z,12.25
2022-09-17T03:38:15.428Z,12.23
2022-09-17T03:40:42.372Z,12.22
2022-09-17T03:43:09.380Z,12.22
2022-09-17T03:45:40.644Z,12.07
2022-09-17T03:48:07.448Z,12.16
2022-09-17T03:50:34.262Z,12.03
2022-09-17T03:53:01.039Z,12.17
2022-09-17T03:55:27.896Z,12.28
2022-09-17T03:57:56.012Z,12.12
2022-09-17T04:00:22.905Z,12.20
2022-09-17T04:02:49.834Z,12.22
2022-09-17T04:05:16.827Z,12.26
2022-09-17T04:07:43.705Z,12.18
2022-09-17T04:10:10.552Z,12.20
2022-09-17T04:12:37.924Z,12.10
2022-09-17T04:15:05.426Z,12.20
2022-09-17T04:17:32.432Z,12.21
2022-09-17T04:19:59.381Z,12.30
2022-09-17T04:22:26.924Z,12.23
2022-09-17T04:24:54.444Z,12.24
2022-09-17T04:27:21.345Z,12.29
2022-09-17T04:29:48.174Z,12.38
2022-09-17T04:32:14.937Z,12.37
2022-09-17T04:34:41.823Z,12.42
2022-09-17T04:37:08.701Z,12.41
2022-09-17T04:39:35.702Z,12.39
2022-09-17T04:42:02.515Z,12.26
2022-09-17T04:44:29.339Z,12.26
2022-09-17T04:46:56.274Z,12.32
2022-09-17T04:49:23.139Z,12.42
2022-09-17T04:51:49.938Z,12.36
2022-09-17T04:54:16.764Z,12.41
2022-09-17T04:56:43.671Z,12.50
2022-09-17T04:59:10.585Z,12.51
2022-09-17T05:01:37.610Z,12.57
2022-09-17T05:04:04.410Z,12.54
2022-09-17T05:06:31.229Z,12.53
2022-09-17T05:08:58.102Z,12.55
2022-09-17T05:11:24.912Z,12.48
2022-09-17T05:13:51.835Z,12.41
2022-09-17T05:16:18.739Z,12.39
2022-09-17T05:18:45.792Z,12.42
2022-09-17T05:21:12.645Z,12.45
2022-09-17T05:23:39.442Z,12.38
2022-09-17T05:26:06.242Z,12.37
2022-09-17T05:28:33.073Z,12.36
2022-09-17T05:31:01.042Z,12.51
2022-09-17T05:33:28.448Z,12.39
2022-09-17T05:35:55.376Z,12.44
2022-09-17T05:38:22.590Z,12.30
2022-09-17T05:40:49.431Z,12.32
2022-09-17T05:43:16.510Z,12.45
2022-09-17T05:45:43.669Z,12.46
2022-09-17T05:48:16.070Z,12.47
2022-09-17T05:50:42.899Z,12.41
2022-09-17T05:53:13.845Z,12.46
2022-09-17T05:55:40.674Z,12.49
2022-09-17T05:58:19.343Z,12.58
2022-09-17T06:00:48.728Z,12.59
2022-09-17T06:03:21.780Z,12.63
2022-09-17T06:05:56.463Z,12.73
2022-09-17T06:08:24.845Z,12.85
2022-09-17T06:10:51.904Z,12.87
2022-09-17T06:13:19.758Z,12.91
2022-09-17T06:15:54.069Z,12.97
2022-09-17T06:18:21.363Z,13.04
2022-09-17T06:20:59.686Z,13.27
2022-09-17T06:23:27.605Z,13.33
2022-09-17T06:25:58.787Z,13.34
2022-09-17T06:28:29.452Z,13.43
2022-09-17T06:31:01.497Z,13.96
2022-09-17T06:33:28.429Z,14.94
2022-09-17T06:36:06.688Z,15.65
2022-09-17T06:38:36.842Z,16.42
2022-09-17T06:41:04.330Z,16.31
2022-09-17T06:43:31.899Z,16.08
2022-09-17T06:46:02.153Z,16.68
2022-09-17T06:48:30.713Z,17.18
2022-09-17T06:51:06.314Z,17.51
2022-09-17T06:53:33.518Z,17.91
2022-09-17T06:56:06.213Z,18.21
2022-09-17T06:58:37.252Z,18.43
2022-09-17T07:01:05.315Z,18.59
2022-09-17T07:03:32.905Z,18.23
2022-09-17T07:06:00.324Z,17.80
2022-09-17T07:08:27.188Z,17.82
2022-09-17T07:10:58.472Z,20.00
2022-09-17T07:13:26.389Z,21.88
2022-09-17T07:16:00.822Z,23.43
2022-09-17T07:18:28.317Z,24.50
2022-09-17T07:20:58.022Z,25.49
2022-09-17T07:23:29.837Z,25.37
2022-09-17T07:25:59.490Z,25.48
2022-09-17T07:28:27.815Z,25.95
2022-09-17T07:30:55.808Z,25.98
2022-09-17T07:33:26.218Z,26.09
2022-09-17T07:35:54.881Z,26.28
2022-09-17T07:38:22.783Z,27.01
2022-09-17T07:41:05.492Z,27.01
2022-09-17T07:43:34.986Z,26.69
2022-09-17T07:46:04.655Z,25.80
2022-09-17T07:48:32.319Z,25.20
2022-09-17T07:50:59.169Z,25.55
2022-09-17T07:53:27.109Z,25.29
2022-09-17T07:55:59.700Z,24.55
2022-09-17T07:58:33.409Z,23.34
2022-09-17T08:01:05.155Z,22.45
2022-09-17T08:03:32.149Z,21.83
2022-09-17T08:06:08.492Z,21.56
2022-09-17T08:08:37.334Z,21.40
2022-09-17T08:11:07.728Z,21.51
2022-09-17T08:13:34.686Z,21.88
2022-09-17T08:16:05.312Z,24.06
2022-09-17T08:18:32.873Z,25.78
2022-09-17T08:21:02.478Z,26.96
2022-09-17T08:23:31.190Z,26.15
2022-09-17T08:26:01.246Z,25.03
2022-09-17T08:28:30.927Z,25.48
2022-09-17T08:31:06.294Z,25.24
2022-09-17T08:33:38.109Z,24.50
2022-09-17T08:36:07.610Z,24.86
2022-09-17T08:38:39.116Z,26.36
2022-09-17T08:41:23.289Z,26.95
2022-09-17T08:44:06.194Z,24.93
2022-09-17T08:46:43.446Z,23.85
2022-09-17T08:49:36.319Z,25.20
2022-09-17T08:52:15.296Z,30.38
2022-09-17T08:55:08.027Z,29.33
2022-09-17T08:57:46.940Z,31.50
2022-09-17T09:00:18.605Z,32.57
2022-09-17T09:03:16.766Z,32.58
2022-09-17T09:05:47.590Z,31.30
2022-09-17T09:08:41.302Z,29.24
2022-09-17T09:11:16.469Z,27.28
2022-09-17T09:14:22.137Z,24.75
2022-09-17T09:16:50.123Z,24.49
2022-09-17T09:19:27.118Z,28.90
2022-09-17T09:22:13.807Z,31.71
2022-09-17T09:25:16.842Z,33.50
2022-09-17T09:28:03.790Z,30.90
2022-09-17T09:30:54.010Z,29.19
2022-09-17T09:33:37.875Z,26.97
2022-09-17T09:36:11.680Z,24.89
2022-09-17T09:39:01.756Z,25.63
2022-09-17T09:41:43.376Z,26.41
2022-09-17T09:44:14.032Z,24.42
2022-09-17T09:47:13.308Z,24.70
2022-09-17T09:49:58.427Z,24.65
2022-09-17T09:52:49.252Z,23.66
2022-09-17T09:55:53.972Z,22.29
2022-09-17T09:58:37.335Z,21.44
2022-09-17T10:01:16.494Z,20.87
2022-09-17T10:03:46.159Z,20.92
2022-09-17T10:06:15.222Z,21.19
2022-09-17T10:08:49.639Z,21.19
2022-09-17T10:11:26.272Z,21.05
2022-09-17T10:13:53.313Z,23.17
2022-09-17T10:16:21.873Z,27.31
2022-09-17T10:18:51.307Z,30.74
2022-09-17T10:21:33.158Z,34.42
2022-09-17T10:24:02.743Z,35.69
2022-09-17T10:26:33.657Z,35.21
2022-09-17T10:29:05.178Z,31.18
2022-09-17T10:31:53.724Z,27.90
2022-09-17T10:34:29.330Z,26.21
2022-09-17T10:36:57.225Z,25.01
2022-09-17T10:39:26.978Z,24.24
2022-09-17T10:42:07.284Z,23.67
2022-09-17T10:44:37.236Z,22.80
2022-09-17T10:47:14.539Z,21.93
2022-09-17T10:50:01.276Z,21.73
2022-09-17T10:52:35.526Z,21.63
2022-09-17T10:55:20.499Z,21.48
2022-09-17T10:58:09.766Z,21.09
2022-09-17T11:01:05.941Z,20.41
2022-09-17T11:04:17.858Z,19.94
2022-09-17T11:07:05.674Z,19.60
2022-09-17T11:09:53.403Z,19.54
2022-09-17T11:13:11.734Z,19.62
2022-09-17T11:15:54.066Z,19.51
2022-09-17T11:18:35.665Z,19.76
2022-09-17T11:21:21.192Z,20.05
2022-09-17T11:24:05.941Z,19.77
2022-09-17T11:27:05.853Z,19.82
2022-09-17T11:30:19.620Z,19.69
2022-09-17T11:33:20.243Z,19.65
2022-09-17T11:35:52.821Z,19.82
2022-09-17T11:38:43.288Z,20.02
2022-09-17T11:41:22.971Z,19.82
2022-09-17T11:44:20.820Z,19.75
2022-09-17T11:47:10.576Z,19.77
2022-09-17T11:49:54.904Z,19.98
2022-09-17T11:52:28.585Z,20.00
2022-09-17T11:55:09.874Z,20.12
2022-09-17T11:57:40.306Z,20.16
2022-09-17T12:00:17.967Z,20.18
2022-09-17T12:02:55.281Z,20.16
2022-09-17T12:05:29.612Z,20.01
2022-09-17T12:08:18.508Z,19.80
2022-09-17T12:10:57.269Z,19.77
2022-09-17T12:14:16.176Z,19.59
2022-09-17T12:16:48.653Z,19.58
2022-09-17T12:19:25.403Z,19.41
2022-09-17T12:22:11.900Z,19.25
2022-09-17T12:24:40.358Z,19.24
2022-09-17T12:27:20.062Z,19.21
2022-09-17T12:30:22.841Z,19.12
2022-09-17T12:33:45.033Z,19.05
2022-09-17T12:36:40.872Z,19.13
2022-09-17T12:39:34.627Z,18.90
2022-09-17T12:42:49.461Z,19.05
2022-09-17T12:45:37.397Z,19.21
2022-09-17T12:48:35.259Z,19.41
2022-09-17T12:51:14.297Z,19.66
2022-09-17T12:54:21.997Z,19.71
2022-09-17T12:57:43.357Z,19.79
2022-09-17T13:00:15.768Z,19.74
2022-09-17T13:03:15.281Z,19.39
2022-09-17T13:06:15.211Z,19.72
2022-09-17T13:08:55.753Z,19.68
2022-09-17T13:11:55.758Z,19.53
2022-09-17T13:14:28.762Z,19.41
2022-09-17T13:17:13.243Z,19.44
2022-09-17T13:19:52.825Z,19.33
2022-09-17T13:22:23.146Z,19.16
2022-09-17T13:25:08.415Z,19.30
2022-09-17T13:27:38.106Z,19.24
2022-09-17T13:30:11.008Z,19.34
2022-09-17T13:32:40.546Z,19.19
2022-09-17T13:35:09.989Z,19.23
2022-09-17T13:37:45.795Z,19.19
2022-09-17T13:40:34.819Z,19.14
2022-09-17T13:43:06.263Z,19.06
2022-09-17T13:45:36.226Z,19.02
2022-09-17T13:48:11.094Z,19.04
2022-09-17T13:50:44.884Z,19.26
2022-09-17T13:53:14.509Z,19.29
2022-09-17T13:55:55.415Z,19.24
2022-09-17T13:58:29.923Z,19.13
2022-09-17T14:01:02.909Z,18.87
2022-09-17T14:03:37.718Z,18.57
2022-09-17T14:06:11.156Z,18.53
2022-09-17T14:08:44.020Z,18.45
2022-09-17T14:11:22.851Z,18.37
2022-09-17T14:14:12.708Z,18.15
2022-09-17T14:16:50.112Z,18.01
2022-09-17T14:19:30.751Z,18.05
2022-09-17T14:22:06.617Z,17.99
2022-09-17T14:24:54.620Z,18.06
2022-09-17T14:27:55.833Z,18.01
2022-09-17T14:30:30.563Z,18.06
2022-09-17T14:33:22.797Z,18.19
2022-09-17T14:36:00.985Z,18.18
2022-09-17T14:38:44.645Z,18.52
2022-09-17T14:41:11.412Z,18.60
2022-09-17T14:44:01.282Z,18.64
2022-09-17T14:46:47.504Z,18.69
2022-09-17T14:49:22.729Z,18.80
2022-09-17T14:51:54.317Z,18.75
2022-09-17T14:54:26.696Z,18.52
2022-09-17T14:57:24.544Z,18.46
2022-09-17T14:59:57.621Z,18.42
2022-09-17T15:02:44.744Z,18.37
2022-09-17T15:05:33.591Z,18.30
2022-09-17T15:08:21.099Z,18.20
2022-09-17T15:11:05.017Z,18.11
2022-09-17T15:13:51.732Z,18.10
2022-09-17T15:16:25.803Z,18.03
2022-09-17T15:18:59.456Z,18.04
2022-09-17T15:21:49.406Z,18.08
2022-09-17T15:24:36.374Z,18.22
2022-09-17T15:27:29.289Z,18.03
2022-09-17T15:30:15.937Z,17.96
2022-09-17T15:32:50.085Z,17.94
2022-09-17T15:35:21.665Z,18.01
2022-09-17T15:38:11.875Z,18.03
2022-09-17T15:40:43.611Z,18.12
2022-09-17T15:43:33.311Z,18.17
2022-09-17T15:46:30.956Z,18.45
2022-09-17T15:49:03.405Z,18.49
2022-09-17T15:51:37.099Z,18.21
2022-09-17T15:54:06.669Z,18.27
2022-09-17T15:56:39.347Z,18.22
2022-09-17T15:59:24.422Z,17.85
2022-09-17T16:01:55.800Z,17.69
2022-09-17T16:04:25.433Z,17.67
2022-09-17T16:07:11.766Z,17.42
2022-09-17T16:09:53.287Z,17.32
2022-09-17T16:12:23.175Z,17.14
2022-09-17T16:14:53.592Z,16.92
2022-09-17T16:17:46.206Z,17.03
2022-09-17T16:20:25.034Z,16.80
2022-09-17T16:22:53.392Z,16.86
2022-09-17T16:25:24.961Z,16.72
2022-09-17T16:27:58.412Z,16.70
2022-09-17T16:30:25.827Z,16.71
2022-09-17T16:32:53.774Z,16.61
2022-09-17T16:35:23.735Z,16.23
2022-09-17T16:37:53.234Z,15.64
2022-09-17T16:40:22.732Z,15.73
2022-09-17T16:42:49.638Z,15.67
2022-09-17T16:45:17.018Z,15.56
2022-09-17T16:47:43.916Z,15.61
2022-09-17T16:50:14.236Z,15.50
2022-09-17T16:52:41.558Z,15.53
2022-09-17T16:55:11.427Z,15.41
2022-09-17T16:57:41.500Z,15.40
2022-09-17T17:00:12.932Z,15.34
2022-09-17T17:02:39.813Z,15.43
2022-09-17T17:05:07.322Z,15.49
2022-09-17T17:07:36.256Z,15.32
2022-09-17T17:10:09.047Z,15.18
2022-09-17T17:12:37.279Z,15.14
2022-09-17T17:15:09.249Z,15.03
2022-09-17T17:17:37.153Z,15.01
2022-09-17T17:20:09.149Z,15.03
2022-09-17T17:22:38.040Z,15.06
2022-09-17T17:27:44.446Z,14.99
2022-09-17T17:30:16.721Z,15.05
2022-09-17T17:32:45.055Z,14.94
2022-09-17T17:35:12.137Z,15.00
2022-09-17T17:37:38.915Z,14.91
2022-09-17T17:40:09.343Z,14.69
2022-09-17T17:42:43.810Z,14.62
2022-09-17T17:45:11.233Z,14.43
2022-09-17T17:47:38.165Z,14.52
2022-09-17T17:50:05.630Z,14.62
2022-09-17T17:52:32.527Z,14.48
2022-09-17T17:54:59.320Z,14.53
2022-09-17T17:57:26.176Z,14.50
2022-09-17T17:59:52.998Z,14.40
2022-09-17T18:02:19.884Z,14.39
2022-09-17T18:04:46.823Z,14.35
2022-09-17T18:07:13.709Z,14.22
2022-09-17T18:09:40.646Z,14.19
2022-09-17T18:12:07.846Z,14.14
2022-09-17T18:14:34.908Z,14.06
2022-09-17T18:17:01.780Z,13.99
2022-09-17T18:19:28.613Z,13.95
2022-09-17T18:21:55.439Z,13.91
2022-09-17T18:24:22.369Z,13.78
2022-09-17T18:26:49.529Z,13.69
2022-09-17T18:29:16.489Z,13.83
2022-09-17T18:31:44.630Z,13.73
2022-09-17T18:34:15.474Z,13.69
2022-09-17T18:36:45.484Z,13.77
2022-09-17T18:42:02.334Z,13.86
2022-09-17T18:44:29.150Z,13.98
2022-09-17T18:46:56.034Z,14.02
2022-09-17T18:49:22.956Z,14.13
2022-09-17T18:51:49.835Z,14.05
2022-09-17T18:54:16.642Z,14.10
2022-09-17T18:56:43.528Z,14.13
2022-09-17T18:59:10.874Z,14.10
2022-09-17T19:01:38.152Z,13.82
2022-09-17T19:04:07.572Z,13.97
2022-09-17T19:06:34.933Z,13.90
2022-09-17T19:09:04.139Z,13.89
2022-09-17T19:11:31.081Z,13.85
2022-09-17T19:13:58.094Z,13.61
2022-09-17T19:16:25.062Z,13.71
2022-09-17T19:18:51.976Z,13.65
2022-09-17T19:21:23.045Z,13.56
2022-09-17T19:23:51.850Z,13.42
2022-09-17T19:26:24.949Z,13.50
2022-09-17T19:28:54.564Z,13.49
2022-09-17T19:31:22.322Z,13.56
2022-09-17T19:33:50.447Z,13.46
2022-09-17T19:36:18.821Z,13.55
2022-09-17T19:38:46.542Z,13.55
2022-09-17T19:41:17.254Z,13.53
2022-09-17T19:43:45.170Z,13.61
2022-09-17T19:46:17.917Z,13.55
2022-09-17T19:48:52.329Z,13.57
2022-09-17T19:51:21.599Z,13.60
2022-09-17T19:53:48.464Z,13.64
2022-09-17T19:56:22.183Z,13.64
2022-09-17T19:58:49.299Z,13.63
2022-09-17T20:01:16.858Z,13.55
2022-09-17T20:03:45.021Z,13.63
2022-09-17T20:06:15.500Z,13.61
2022-09-17T20:08:51.076Z,13.62
2022-09-17T20:11:20.777Z,13.64
2022-09-17T20:13:47.829Z,13.69
2022-09-17T20:16:18.461Z,13.55
2022-09-17T20:18:46.679Z,13.61
2022-09-17T20:21:20.510Z,13.56
2022-09-17T20:23:47.727Z,13.44
2022-09-17T20:26:15.917Z,13.49
2022-09-17T20:28:43.474Z,13.43
2022-09-17T20:31:17.167Z,13.39
2022-09-17T20:33:45.302Z,13.36
2022-09-17T20:36:18.255Z,13.39
2022-09-17T20:39:10.826Z,13.36
2022-09-17T20:41:32.383Z,13.47
2022-09-17T20:43:59.449Z,13.42
2022-09-17T20:46:29.381Z,13.41
2022-09-17T20:48:58.207Z,13.43
2022-09-17T20:51:28.945Z,13.45
2022-09-17T20:53:57.364Z,13.48
2022-09-17T20:56:32.359Z,13.34
2022-09-17T20:59:15.264Z,13.48
2022-09-17T21:01:45.585Z,13.42
2022-09-17T21:04:16.554Z,13.45
2022-09-17T21:06:44.851Z,13.51
2022-09-17T21:09:16.399Z,13.51
2022-09-17T21:11:48.153Z,13.51
2022-09-17T21:14:17.247Z,13.54
2022-09-17T21:16:45.738Z,13.54
2022-09-17T21:19:14.753Z,13.56
2022-09-17T21:21:41.661Z,13.53
2022-09-17T21:24:11.676Z,13.50
2022-09-17T21:26:38.519Z,13.50
2022-09-17T21:29:05.520Z,13.53
2022-09-17T21:31:34.472Z,13.39
2022-09-17T21:34:06.264Z,13.41
2022-09-17T21:36:36.079Z,13.41
2022-09-17T21:39:14.291Z,13.34
2022-09-17T21:41:43.181Z,13.35
2022-09-17T21:44:11.920Z,13.37
2022-09-17T21:46:40.049Z,13.44
2022-09-17T21:49:07.803Z,13.44
2022-09-17T21:51:39.184Z,13.48
2022-09-17T21:54:12.570Z,13.49
2022-09-17T21:56:39.476Z,13.55
2022-09-17T21:59:09.667Z,13.50
2022-09-17T22:01:40.784Z,13.51
2022-09-17T22:04:10.850Z,13.59
2022-09-17T22:06:38.057Z,13.61
2022-09-17T22:09:06.808Z,13.57
2022-09-17T22:11:36.838Z,13.58
2022-09-17T22:14:10.699Z,13.62
2022-09-17T22:16:43.833Z,13.57
2022-09-17T22:19:13.653Z,13.61
2022-09-17T22:21:45.154Z,13.55
2022-09-17T22:24:12.448Z,13.58
2022-09-17T22:26:43.599Z,13.51
2022-09-17T22:29:16.410Z,13.46
2022-09-17T22:31:44.783Z,13.33
2022-09-17T22:34:18.825Z,13.44
2022-09-17T22:36:45.824Z,13.47
2022-09-17T22:39:12.826Z,13.43
2022-09-17T22:41:45.804Z,13.47
2022-09-17T22:44:18.775Z,13.39
2022-09-17T22:46:48.887Z,13.49
2022-09-17T22:49:16.590Z,13.36
2022-09-17T22:51:45.079Z,13.36
2022-09-17T22:54:14.499Z,13.45
2022-09-17T22:56:42.356Z,13.42
2022-09-17T22:59:09.563Z,13.35
2022-09-17T23:01:37.270Z,13.31
2022-09-17T23:04:05.286Z,13.38
2022-09-17T23:06:36.532Z,13.46
2022-09-17T23:09:03.945Z,13.21
2022-09-17T23:11:33.947Z,13.43
2022-09-17T23:14:04.984Z,13.53
2022-09-17T23:16:42.317Z,13.41
2022-09-17T23:19:09.989Z,13.41
2022-09-17T23:21:38.484Z,13.41
2022-09-17T23:24:05.979Z,13.36
2022-09-17T23:26:33.269Z,13.33
2022-09-17T23:29:04.834Z,13.37
2022-09-17T23:31:33.969Z,13.37
2022-09-17T23:34:01.238Z,13.34
2022-09-17T23:36:32.099Z,13.36
2022-09-17T23:39:02.125Z,13.45
2022-09-17T23:41:39.938Z,13.48
2022-09-17T23:44:14.793Z,13.45
2022-09-17T23:46:44.089Z,13.43
2022-09-17T23:49:12.582Z,13.42
2022-09-17T23:51:39.523Z,13.38
2022-09-17T23:54:07.187Z,13.44
2022-09-17T23:56:35.235Z,13.30
2022-09-17T23:59:02.549Z,13.27
